Mahaffey, Pennsylvania
Current Conditions -  °F | °C
As of 7:21 AM on Tuesday 27 Jan 2015 (Local Time) from KFIG Reporting Station
Light Snow Light Snow  
Wind Chill: 10°   Ceiling: 4400
Heat Index: 17°   Visibility: 3mi
Dew Point: 13°   Wind: 5mph
Humidity: 84%   Direction: 310°NW
Pressure: 29.82"   Gusts: NA
Location:  40.87°N, 78.72°W
Report Text: KFIG 271221Z AUTO 31004KT 3SM -SN BR OVC044 M08/M11 A2982 RMK AO2 P0000 T10831106
Loading
Personal Weather Stations






























Interactive Weather Map New forecast layout! Learn more

10-Day Weather Forecast

Advertisements
Track Severe Weather on mobile